Airfield :
LOGIN :

Register | Disclaimer

   EN    FR    IT 

 










Legend :    VFR   Marginal VFR   IFR   Intensive IFR   Very Intensive IFR
Visi :
Ceiling :
>= 8 km
>= 3000ft
5 to 8 km
1000 to 3000 ft
1500m to 5 km
500 to 1000 ft
800 to 1500m
200 to 500 ft
< 800m
< 200 ft
Symbols :   Thunderstorms  Fog  Heavy snow  Heavy precipitations  Wind > 20 kt
SIGMETs :     Misc.  Thunderstorms  Icing  Turbulence  Mountain Waves  Volcanic Ashes






- Airport Elevation : 1079 ft


ETIK - Illesheim Air Base

CURRENT METAR :
  • 231656Z AUTO 00000KT 9999 CLR 05/03 A3041 RMK AO2 SLP311 T00530031 $

EXPIRED METARs :
  • 231616Z AUTO 00000KT 8000 HZ FEW045 08/04 A3040 RMK AO2 SLP305 $
  • 231556Z AUTO 00000KT 9999 BKN044 09/04 A3040 RMK AO2 SLP305 T00930037 $
  • 231456Z AUTO 00000KT 9999 BKN045 09/04 A3039 RMK AO2 SLP300 T00940036 53001 $

TAF TAF ETIK
Valid from the 22 at 15:00 until the 23 at 20:00 UTC


221540Z 2215/2320 26010G20KT 9999 BKN030 520009 610505 QNH3008INS
BECMG 2223/2300 VRB06KT 9999 BKN015 610505 QNH3018INS
BECMG 2303/2304 VRB06KT 6000 BR OVC010 610505 QNH3032INS
BECMG 2309/2310 VRB06KT 9999 BKN020 610403 QNH3029INS TX10/2215Z TN04/2306Z LAST NO AMDS 2215 NEXT 2506



MET'MAP, your aeronautical weather chart ! - Copyright ORBIFLY December 2007 - Disclaimer

ORBIFLY MET'MAP TEAM :

Programming & Development : Alexandra Zaïnal
Concept & original design : Baudouin d'Aumeries
Assistance for programming : Marc-Olivier Méhu
Technical & hardware support : Manuel Goepfert

Contact : metmap@orbifly.com




SOURCES & CREDITS :

   NOAA